createdAt,value
2018-11-12T00:01:17.508Z,56.5
2018-11-12T00:06:13.411Z,56.5
2018-11-12T00:11:09.466Z,56.6
2018-11-12T00:16:05.340Z,56.8
2018-11-12T00:21:00.752Z,56.5
2018-11-12T00:25:56.802Z,56.3
2018-11-12T00:30:52.900Z,56.5
2018-11-12T00:35:48.781Z,56.3
2018-11-12T00:40:44.582Z,56.5
2018-11-12T00:45:40.535Z,56.7
2018-11-12T00:50:36.700Z,56.5
2018-11-12T00:55:32.188Z,56.1
2018-11-12T01:00:28.167Z,56.1
2018-11-12T01:05:24.161Z,55.9
2018-11-12T01:10:20.025Z,56.2
2018-11-12T01:15:15.849Z,56.8
2018-11-12T01:20:11.667Z,56.7
2018-11-12T01:25:07.805Z,57.1
2018-11-12T01:30:03.771Z,56.9
2018-11-12T01:34:59.654Z,57.1
2018-11-12T01:39:55.622Z,57
2018-11-12T01:44:51.492Z,57
2018-11-12T01:49:46.638Z,57
2018-11-12T01:54:42.557Z,57.6
2018-11-12T01:59:38.572Z,57.6
2018-11-12T02:04:34.666Z,57.6
2018-11-12T02:09:30.534Z,58.1
2018-11-12T02:14:26.503Z,57.6
2018-11-12T02:19:22.656Z,57.8
2018-11-12T02:24:18.524Z,58.3
2018-11-12T02:29:14.168Z,58.3
2018-11-12T02:34:09.975Z,58.1
2018-11-12T02:39:06.094Z,58.2
2018-11-12T02:44:01.912Z,58.1
2018-11-12T02:48:57.894Z,58.5
2018-11-12T02:53:54.128Z,58.7
2018-11-12T02:58:49.909Z,59.1
2018-11-12T03:03:45.643Z,58.7
2018-11-12T03:08:41.851Z,58.7
2018-11-12T03:13:37.776Z,57.7
2018-11-12T03:18:33.521Z,57.7
2018-11-12T03:23:29.457Z,58.2
2018-11-12T03:28:25.513Z,58.5
2018-11-12T03:33:21.506Z,58.2
2018-11-12T03:38:17.496Z,58.3
2018-11-12T03:43:13.353Z,58.7
2018-11-12T03:48:09.298Z,58.2
2018-11-12T03:53:05.161Z,58.3
2018-11-12T03:58:01.315Z,58.4
2018-11-12T04:02:57.544Z,58.7
2018-11-12T04:07:53.436Z,58.5
2018-11-12T04:12:49.297Z,58.5
2018-11-12T04:17:45.274Z,58.4
2018-11-12T04:22:41.176Z,58.3
2018-11-12T04:27:37.302Z,58.8
2018-11-12T04:32:33.044Z,58.6
2018-11-12T04:37:29.186Z,59
2018-11-12T04:42:25.079Z,58.9
2018-11-12T04:47:21.063Z,58.9
2018-11-12T04:52:16.964Z,58.9
2018-11-12T04:57:13.068Z,58.4
2018-11-12T05:02:08.902Z,58.7
2018-11-12T05:07:04.570Z,58.7
2018-11-12T05:12:00.475Z,58.6
2018-11-12T05:16:56.194Z,58.6
2018-11-12T05:21:52.177Z,58.9
2018-11-12T05:26:49.179Z,59.4
2018-11-12T05:31:45.245Z,58.9
2018-11-12T05:36:41.358Z,58.9
2018-11-12T05:41:37.122Z,58.8
2018-11-12T05:46:33.204Z,58.9
2018-11-12T05:51:29.090Z,58.6
2018-11-12T05:56:25.695Z,58.9
2018-11-12T06:01:22.014Z,59
2018-11-12T06:06:18.108Z,59.2
2018-11-12T06:11:14.115Z,59.2
2018-11-12T06:16:10.115Z,59.2
2018-11-12T06:21:05.765Z,59.2
2018-11-12T06:26:01.327Z,59.1
2018-11-12T06:30:57.112Z,59.5
2018-11-12T06:35:52.932Z,59.3
2018-11-12T06:40:48.967Z,59.2
2018-11-12T06:45:44.869Z,59.6
2018-11-12T06:50:41.001Z,59.4
2018-11-12T06:55:37.193Z,59.2
2018-11-12T07:00:33.009Z,59.1
2018-11-12T07:05:29.033Z,58.8
2018-11-12T07:10:25.048Z,59.1
2018-11-12T07:15:20.959Z,58.7
2018-11-12T07:20:16.684Z,58.3
2018-11-12T07:25:12.628Z,58
2018-11-12T07:30:08.056Z,57.7
2018-11-12T07:35:03.943Z,57.6
2018-11-12T07:39:59.747Z,57.8
2018-11-12T07:44:55.468Z,57.8
2018-11-12T07:49:51.172Z,57.8
2018-11-12T07:54:47.667Z,57.6
2018-11-12T07:59:43.745Z,57.2
2018-11-12T08:04:39.882Z,56.6
2018-11-12T08:09:35.797Z,56.8
2018-11-12T08:14:31.854Z,56.7
2018-11-12T08:19:27.429Z,56.5
2018-11-12T08:24:22.951Z,56.3
2018-11-12T08:29:18.864Z,56.3
2018-11-12T08:34:12.283Z,55.9
2018-11-12T08:39:08.210Z,55.6
2018-11-12T08:44:04.047Z,55.5
2018-11-12T08:49:00.093Z,55.4
2018-11-12T08:53:56.347Z,55.4
2018-11-12T08:58:52.265Z,55.4
2018-11-12T09:03:48.548Z,55.5
2018-11-12T09:08:44.273Z,55.3
2018-11-12T09:13:43.597Z,55.4
2018-11-12T09:18:38.364Z,55.3
2018-11-12T09:23:34.046Z,55.5
2018-11-12T09:28:29.786Z,55.6
2018-11-12T09:33:25.830Z,55.4
2018-11-12T09:38:22.217Z,55.1
2018-11-12T09:43:18.540Z,54.9
2018-11-12T09:48:14.116Z,54.7
2018-11-12T09:53:10.729Z,54
2018-11-12T09:58:07.040Z,53.9
2018-11-12T10:03:04.446Z,53.2
2018-11-12T10:08:02.169Z,52.8
2018-11-12T10:12:57.396Z,52.1
2018-11-12T10:17:53.862Z,52.2
2018-11-12T10:22:47.412Z,51.9
2018-11-12T10:27:43.545Z,51.5
2018-11-12T10:32:39.299Z,51.1
2018-11-12T10:37:35.461Z,51
2018-11-12T10:42:31.884Z,50.8
2018-11-12T10:47:27.762Z,50.4
2018-11-12T10:52:24.220Z,50.6
2018-11-12T10:57:20.090Z,50.7
2018-11-12T11:02:16.371Z,50.6
2018-11-12T11:07:12.177Z,50.4
2018-11-12T11:12:08.287Z,50
2018-11-12T11:17:04.154Z,50.1
2018-11-12T11:22:00.331Z,49.2
2018-11-12T11:26:56.333Z,48.9
2018-11-12T11:31:52.049Z,48.8
2018-11-12T11:36:48.076Z,48.1
2018-11-12T11:41:44.493Z,48.1
2018-11-12T11:46:40.452Z,47.6
2018-11-12T11:51:37.011Z,47
2018-11-12T11:56:33.269Z,46.5
2018-11-12T12:01:29.260Z,45.9
2018-11-12T12:06:25.503Z,46
2018-11-12T12:11:21.655Z,45.3
2018-11-12T12:16:17.721Z,45.3
2018-11-12T12:21:13.932Z,44.7
2018-11-12T12:26:10.073Z,44.8
2018-11-12T12:31:05.947Z,44.5
2018-11-12T12:36:02.202Z,44
2018-11-12T12:40:58.391Z,43.6
2018-11-12T12:45:54.548Z,43.7
2018-11-12T12:50:50.706Z,43.6
2018-11-12T12:55:47.041Z,44.3
2018-11-12T13:00:42.828Z,43.4
2018-11-12T13:05:38.857Z,44
2018-11-12T13:10:34.503Z,43.8
2018-11-12T13:15:30.497Z,43.8
2018-11-12T13:20:26.624Z,43.3
2018-11-12T13:25:22.667Z,44.3
2018-11-12T13:30:18.809Z,44.2
2018-11-12T13:35:14.860Z,44.3
2018-11-12T13:40:10.903Z,44.2
2018-11-12T13:45:06.863Z,44.1
2018-11-12T13:50:02.417Z,44.2
2018-11-12T13:54:58.783Z,44.1
2018-11-12T13:59:54.834Z,44.2
2018-11-12T14:04:50.705Z,44.8
2018-11-12T14:09:46.248Z,44.8
2018-11-12T14:14:42.123Z,44.8
2018-11-12T14:19:37.921Z,45.2
2018-11-12T14:24:34.040Z,45.2
2018-11-12T14:29:29.989Z,45.3
2018-11-12T14:34:26.008Z,45.5
2018-11-12T14:39:21.969Z,45.8
2018-11-12T14:44:17.814Z,45.9
2018-11-12T14:49:14.042Z,46.1
2018-11-12T14:54:10.160Z,46.2
2018-11-12T14:59:05.752Z,46.6
2018-11-12T15:04:01.984Z,46.7
2018-11-12T15:08:57.908Z,46.9
2018-11-12T15:13:53.516Z,47.1
2018-11-12T15:18:49.494Z,47.1
2018-11-12T15:23:45.673Z,47.2
2018-11-12T15:28:42.017Z,47.3
2018-11-12T15:33:37.885Z,47.6
2018-11-12T15:38:33.877Z,47.7
2018-11-12T15:43:29.865Z,47.7
2018-11-12T15:48:25.668Z,47.9
2018-11-12T15:53:21.475Z,48.1
2018-11-12T15:58:17.580Z,48.1
2018-11-12T16:03:13.394Z,48.4
2018-11-12T16:08:08.972Z,48.5
2018-11-12T16:13:04.780Z,48.7
2018-11-12T16:17:59.901Z,49
2018-11-12T16:22:55.842Z,48.9
2018-11-12T16:27:52.117Z,49
2018-11-12T16:32:48.252Z,49.4
2018-11-12T16:37:44.040Z,49.6
2018-11-12T16:42:39.940Z,49.5
2018-11-12T16:47:36.193Z,49.7
2018-11-12T16:52:32.105Z,49.9
2018-11-12T16:57:30.100Z,49.7
2018-11-12T17:02:27.663Z,49.8
2018-11-12T17:07:24.925Z,49.7
2018-11-12T17:12:20.905Z,49.9
2018-11-12T17:17:16.593Z,50.1
2018-11-12T17:22:12.605Z,50.5
2018-11-12T17:27:08.667Z,50.4
2018-11-12T17:32:05.003Z,50.7
2018-11-12T17:37:00.827Z,50.6
2018-11-12T17:41:56.759Z,51.1
2018-11-12T17:46:52.445Z,51.2
2018-11-12T17:51:48.461Z,51.3
2018-11-12T17:56:44.932Z,51.7
2018-11-12T18:01:41.237Z,51.7
2018-11-12T18:06:37.245Z,51.4
2018-11-12T18:11:34.810Z,51.4
2018-11-12T18:16:30.870Z,51.5
2018-11-12T18:21:26.708Z,51.5
2018-11-12T18:26:22.186Z,51.3
2018-11-12T18:31:18.159Z,51.5
2018-11-12T18:36:11.765Z,51.4
2018-11-12T18:41:07.711Z,51.8
2018-11-12T18:46:03.886Z,51.8
2018-11-12T18:50:59.852Z,51.7
2018-11-12T18:55:56.037Z,52
2018-11-12T19:00:52.329Z,52.2
2018-11-12T19:05:48.333Z,52
2018-11-12T19:10:44.075Z,51.9
2018-11-12T19:15:40.176Z,52.3
2018-11-12T19:20:36.234Z,52.2
2018-11-12T19:25:32.187Z,52
2018-11-12T19:30:27.863Z,52
2018-11-12T19:35:23.990Z,52.2
2018-11-12T19:40:20.086Z,52.4
2018-11-12T19:45:15.898Z,52.5
2018-11-12T19:50:11.917Z,52.7
2018-11-12T19:55:08.400Z,52.6
2018-11-12T20:00:04.461Z,53
2018-11-12T20:05:00.269Z,52.7
2018-11-12T20:09:56.064Z,52.1
2018-11-12T20:14:51.995Z,52.2
2018-11-12T20:19:47.829Z,52.2
2018-11-12T20:24:43.465Z,52.2
2018-11-12T20:29:39.472Z,52.3
2018-11-12T20:34:35.740Z,52.8
2018-11-12T20:39:31.747Z,52.7
2018-11-12T20:44:27.633Z,52.8
2018-11-12T20:49:23.095Z,52.9
2018-11-12T20:54:19.939Z,52.8
2018-11-12T20:59:15.514Z,53.4
2018-11-12T21:04:11.301Z,53.6
2018-11-12T21:09:07.173Z,53.7
2018-11-12T21:14:06.245Z,53.2
2018-11-12T21:19:01.494Z,53.1
2018-11-12T21:23:57.626Z,53.5
2018-11-12T21:28:53.605Z,53.5
2018-11-12T21:33:49.762Z,53.6
2018-11-12T21:38:45.351Z,53.9
2018-11-12T21:43:40.997Z,53.7
2018-11-12T21:48:36.860Z,53.5
2018-11-12T21:53:33.883Z,53.3
2018-11-12T21:58:29.838Z,53.8
2018-11-12T22:03:25.778Z,54
2018-11-12T22:08:21.632Z,53.7
2018-11-12T22:13:20.204Z,53.5
2018-11-12T22:18:15.291Z,53.3
2018-11-12T22:23:11.264Z,53.8
2018-11-12T22:28:07.294Z,54.3
2018-11-12T22:33:02.949Z,54.8
2018-11-12T22:37:59.024Z,54.9
2018-11-12T22:42:54.967Z,54.5
2018-11-12T22:47:50.941Z,55.1
2018-11-12T22:52:47.699Z,54.6
2018-11-12T22:57:43.023Z,54.8
2018-11-12T23:02:39.180Z,54.8
2018-11-12T23:07:35.067Z,54.8
2018-11-12T23:12:30.964Z,55.7
2018-11-12T23:17:26.189Z,55.4
2018-11-12T23:22:22.347Z,55.1
2018-11-12T23:27:18.286Z,55.4
2018-11-12T23:32:13.746Z,56
2018-11-12T23:37:09.548Z,55.8
2018-11-12T23:42:05.744Z,55.9
2018-11-12T23:47:01.541Z,55.5
2018-11-12T23:51:57.472Z,55.7
2018-11-12T23:56:53.597Z,55.7
